createdAt,value
2018-11-03T00:01:20.977Z,4.70
2018-11-03T00:03:49.463Z,4.60
2018-11-03T00:06:17.965Z,4.70
2018-11-03T00:08:46.463Z,4.70
2018-11-03T00:11:16.091Z,4.70
2018-11-03T00:13:44.569Z,4.70
2018-11-03T00:16:13.158Z,4.70
2018-11-03T00:18:41.657Z,4.80
2018-11-03T00:21:10.167Z,4.80
2018-11-03T00:23:38.650Z,4.80
2018-11-03T00:26:08.426Z,4.90
2018-11-03T00:28:36.969Z,4.90
2018-11-03T00:31:05.609Z,4.90
2018-11-03T00:33:34.077Z,5.00
2018-11-03T00:36:02.569Z,5.00
2018-11-03T00:38:31.065Z,5.00
2018-11-03T00:40:59.570Z,5.00
2018-11-03T00:43:28.097Z,5.10
2018-11-03T00:45:56.570Z,5.10
2018-11-03T00:48:25.089Z,5.10
2018-11-03T00:50:54.621Z,5.10
2018-11-03T00:53:24.367Z,5.00
2018-11-03T00:55:52.903Z,5.10
2018-11-03T00:58:21.368Z,5.10
2018-11-03T01:00:49.870Z,5.10
2018-11-03T01:03:20.137Z,5.10
2018-11-03T01:05:48.640Z,5.10
2018-11-03T01:08:17.131Z,5.10
2018-11-03T01:10:45.618Z,5.10
2018-11-03T01:13:14.112Z,5.20
2018-11-03T01:15:42.600Z,5.20
2018-11-03T01:18:11.115Z,5.20
2018-11-03T01:20:39.610Z,5.20
2018-11-03T01:23:08.089Z,5.10
2018-11-03T01:25:36.631Z,5.10
2018-11-03T01:28:05.198Z,5.10
2018-11-03T01:30:33.907Z,5.00
2018-11-03T01:33:02.418Z,5.00
2018-11-03T01:35:30.900Z,5.00
2018-11-03T01:37:59.368Z,5.00
2018-11-03T01:40:28.356Z,4.90
2018-11-03T01:43:03.942Z,4.90
2018-11-03T01:45:32.436Z,4.80
2018-11-03T01:48:01.332Z,4.80
2018-11-03T01:50:29.830Z,4.70
2018-11-03T01:52:58.334Z,4.70
2018-11-03T01:55:26.846Z,4.70
2018-11-03T01:57:55.370Z,4.70
2018-11-03T02:00:23.866Z,4.60
2018-11-03T02:02:52.344Z,4.60
2018-11-03T02:05:20.858Z,4.60
2018-11-03T02:07:49.368Z,4.60
2018-11-03T02:10:17.875Z,4.50
2018-11-03T02:12:46.358Z,4.60
2018-11-03T02:15:14.896Z,4.60
2018-11-03T02:17:43.368Z,4.60
2018-11-03T02:20:12.250Z,4.50
2018-11-03T02:22:41.070Z,4.40
2018-11-03T02:25:10.856Z,4.40
2018-11-03T02:27:39.376Z,4.40
2018-11-03T02:30:08.622Z,4.30
2018-11-03T02:32:37.088Z,4.30
2018-11-03T02:35:06.237Z,4.30
2018-11-03T02:37:34.714Z,4.30
2018-11-03T02:40:03.271Z,4.30
2018-11-03T02:42:31.762Z,4.30
2018-11-03T02:45:00.294Z,4.30
2018-11-03T02:47:28.810Z,4.30
2018-11-03T02:49:57.312Z,4.30
2018-11-03T02:52:25.834Z,4.30
2018-11-03T02:54:54.311Z,4.30
2018-11-03T02:57:22.806Z,4.30
2018-11-03T02:59:51.319Z,4.20
2018-11-03T03:02:19.795Z,4.20
2018-11-03T03:04:48.307Z,4.20
2018-11-03T03:07:16.811Z,4.20
2018-11-03T03:09:45.933Z,4.20
2018-11-03T03:12:14.473Z,4.10
2018-11-03T03:14:42.994Z,4.10
2018-11-03T03:17:12.477Z,4.00
2018-11-03T03:19:42.305Z,4.00
2018-11-03T03:22:10.834Z,4.00
2018-11-03T03:24:40.305Z,4.00
2018-11-03T03:27:08.777Z,3.90
2018-11-03T03:29:37.327Z,3.90
2018-11-03T03:32:06.206Z,3.90
2018-11-03T03:34:35.034Z,3.90
2018-11-03T03:37:03.563Z,3.80
2018-11-03T03:39:33.019Z,3.80
2018-11-03T03:42:02.571Z,3.70
2018-11-03T03:44:31.101Z,3.60
2018-11-03T03:46:59.682Z,3.60
2018-11-03T03:49:28.185Z,3.60
2018-11-03T03:51:56.699Z,3.60
2018-11-03T03:54:25.175Z,3.50
2018-11-03T03:56:53.649Z,3.50
2018-11-03T03:59:22.143Z,3.50
2018-11-03T04:01:51.473Z,3.40
2018-11-03T04:04:21.224Z,3.40
2018-11-03T04:06:50.282Z,3.40
2018-11-03T04:09:18.775Z,3.40
2018-11-03T04:11:47.264Z,3.40
2018-11-03T04:14:15.818Z,3.40
2018-11-03T04:16:46.164Z,3.40
2018-11-03T04:19:14.643Z,3.50
2018-11-03T04:21:44.878Z,3.50
2018-11-03T04:24:13.373Z,3.50
2018-11-03T04:26:43.116Z,3.50
2018-11-03T04:29:11.627Z,3.40
2018-11-03T04:31:40.879Z,3.50
2018-11-03T04:34:09.362Z,3.40
2018-11-03T04:36:37.846Z,3.40
2018-11-03T04:39:07.992Z,3.40
2018-11-03T04:41:36.492Z,3.40
2018-11-03T04:44:05.116Z,3.40
2018-11-03T04:46:33.641Z,3.40
2018-11-03T04:49:03.240Z,3.40
2018-11-03T04:51:33.140Z,3.50
2018-11-03T04:54:01.631Z,3.50
2018-11-03T04:56:30.178Z,3.50
2018-11-03T04:58:58.884Z,3.50
2018-11-03T05:01:27.412Z,3.50
2018-11-03T05:03:55.888Z,3.50
2018-11-03T05:06:24.410Z,3.50
2018-11-03T05:08:52.907Z,3.50
2018-11-03T05:11:21.435Z,3.50
2018-11-03T05:13:49.916Z,3.50
2018-11-03T05:16:18.378Z,3.50
2018-11-03T05:18:46.862Z,3.40
2018-11-03T05:21:15.397Z,3.40
2018-11-03T05:23:43.886Z,3.30
2018-11-03T05:26:14.326Z,3.30
2018-11-03T05:28:42.844Z,3.20
2018-11-03T05:31:11.426Z,3.10
2018-11-03T05:33:40.342Z,3.00
2018-11-03T05:36:08.867Z,2.90
2018-11-03T05:38:37.386Z,2.90
2018-11-03T05:41:06.584Z,2.80
2018-11-03T05:43:35.118Z,2.70
2018-11-03T05:46:03.669Z,2.70
2018-11-03T05:48:32.214Z,2.60
2018-11-03T05:51:00.694Z,2.60
2018-11-03T05:53:29.189Z,2.50
2018-11-03T05:55:57.764Z,2.40
2018-11-03T05:58:26.346Z,2.30
2018-11-03T06:00:54.839Z,2.30
2018-11-03T06:03:23.320Z,2.30
2018-11-03T06:05:51.823Z,2.30
2018-11-03T06:08:20.319Z,2.30
2018-11-03T06:10:49.412Z,2.30
2018-11-03T06:13:17.888Z,2.30
2018-11-03T06:15:46.372Z,2.20
2018-11-03T06:18:15.734Z,2.20
2018-11-03T06:20:44.254Z,2.20
2018-11-03T06:23:12.891Z,2.20
2018-11-03T06:25:41.833Z,2.20
2018-11-03T06:28:10.489Z,2.20
2018-11-03T06:30:38.910Z,2.20
2018-11-03T06:33:08.048Z,2.20
2018-11-03T06:35:36.574Z,2.30
2018-11-03T06:38:05.316Z,2.20
2018-11-03T06:40:33.822Z,2.30
2018-11-03T06:43:02.550Z,2.30
2018-11-03T06:45:31.020Z,2.30
2018-11-03T06:48:00.255Z,2.30
2018-11-03T06:50:28.737Z,2.30
2018-11-03T06:52:57.221Z,2.40
2018-11-03T06:55:25.734Z,2.40
2018-11-03T06:57:54.254Z,2.40
2018-11-03T07:00:23.535Z,2.40
2018-11-03T07:02:52.058Z,2.40
2018-11-03T07:05:20.662Z,2.50
2018-11-03T07:07:49.081Z,2.50
2018-11-03T07:10:18.489Z,2.60
2018-11-03T07:12:47.357Z,2.60
2018-11-03T07:15:15.614Z,2.60
2018-11-03T07:17:44.117Z,2.60
2018-11-03T07:20:13.256Z,2.70
2018-11-03T07:22:42.130Z,2.70
2018-11-03T07:25:11.304Z,2.80
2018-11-03T07:27:39.940Z,2.80
2018-11-03T07:30:10.763Z,2.80
2018-11-03T07:32:39.340Z,2.90
2018-11-03T07:35:08.378Z,2.90
2018-11-03T07:37:36.896Z,2.90
2018-11-03T07:40:06.806Z,3.00
2018-11-03T07:42:35.335Z,3.00
2018-11-03T07:45:03.906Z,3.00
2018-11-03T07:47:32.416Z,3.00
2018-11-03T07:50:00.966Z,3.00
2018-11-03T07:52:29.448Z,3.00
2018-11-03T07:54:57.962Z,3.00
2018-11-03T07:57:26.478Z,3.00
2018-11-03T07:59:57.533Z,3.00
2018-11-03T08:02:26.780Z,3.10
2018-11-03T08:04:55.555Z,3.00
2018-11-03T08:07:24.058Z,3.00
2018-11-03T08:09:52.622Z,3.10
2018-11-03T08:12:21.114Z,3.10
2018-11-03T08:14:49.616Z,3.10
2018-11-03T08:17:19.536Z,3.10
2018-11-03T08:19:48.051Z,3.20
2018-11-03T08:22:16.568Z,3.20
2018-11-03T08:24:45.090Z,3.30
2018-11-03T08:27:13.576Z,3.30
2018-11-03T08:29:42.067Z,3.40
2018-11-03T08:32:10.672Z,3.50
2018-11-03T08:34:39.200Z,3.50
2018-11-03T08:37:07.774Z,3.60
2018-11-03T08:39:36.387Z,3.60
2018-11-03T08:42:05.231Z,3.70
2018-11-03T08:44:33.738Z,3.80
2018-11-03T08:47:02.292Z,3.90
2018-11-03T08:49:30.889Z,3.90
2018-11-03T08:51:59.506Z,4.00
2018-11-03T08:54:28.029Z,4.00
2018-11-03T08:56:56.535Z,4.10
2018-11-03T08:59:25.101Z,4.20
2018-11-03T09:01:53.741Z,4.30
2018-11-03T09:04:22.227Z,4.30
2018-11-03T09:06:50.794Z,4.40
2018-11-03T09:09:19.260Z,4.50
2018-11-03T09:11:48.092Z,4.60
2018-11-03T09:14:16.637Z,4.70
2018-11-03T09:16:45.186Z,4.70
2018-11-03T09:19:13.882Z,4.80
2018-11-03T09:21:42.538Z,5.00
2018-11-03T09:24:11.714Z,5.10
2018-11-03T09:26:40.396Z,5.20
2018-11-03T09:29:09.768Z,5.30
2018-11-03T09:31:38.412Z,5.40
2018-11-03T09:34:06.976Z,5.60
2018-11-03T09:36:36.872Z,5.70
2018-11-03T09:39:08.915Z,5.90
2018-11-03T09:41:38.577Z,6.00
2018-11-03T09:44:07.496Z,6.10
2018-11-03T09:46:36.055Z,6.20
2018-11-03T09:49:04.890Z,6.30
2018-11-03T09:51:33.873Z,6.40
2018-11-03T09:54:02.411Z,6.50
2018-11-03T09:56:30.971Z,6.60
2018-11-03T09:58:59.421Z,6.70
2018-11-03T10:01:27.939Z,6.70
2018-11-03T10:03:56.470Z,6.80
2018-11-03T10:06:25.002Z,6.90
2018-11-03T10:08:53.511Z,7.00
2018-11-03T10:11:22.032Z,7.10
2018-11-03T10:13:50.529Z,7.20
2018-11-03T10:16:19.245Z,7.40
2018-11-03T10:18:47.765Z,7.50
2018-11-03T10:21:16.417Z,7.60
2018-11-03T10:23:44.929Z,7.70
2018-11-03T10:26:13.433Z,7.90
2018-11-03T10:28:41.977Z,8.10
2018-11-03T10:31:10.523Z,8.10
2018-11-03T10:33:39.505Z,8.30
2018-11-03T10:36:08.004Z,8.40
2018-11-03T10:38:36.616Z,8.50
2018-11-03T10:41:05.137Z,8.60
2018-11-03T10:43:33.655Z,8.70
2018-11-03T10:46:02.224Z,8.90
2018-11-03T10:48:30.679Z,9.00
2018-11-03T10:50:59.150Z,9.20
2018-11-03T10:53:27.664Z,9.20
2018-11-03T10:55:56.155Z,9.40
2018-11-03T10:58:24.637Z,9.60
2018-11-03T11:00:58.424Z,9.60
2018-11-03T11:03:32.399Z,9.70
2018-11-03T11:06:06.400Z,9.70
2018-11-03T11:08:40.326Z,9.80
2018-11-03T11:11:15.296Z,9.90
2018-11-03T11:13:44.427Z,9.90
2018-11-03T11:16:13.343Z,10.00
2018-11-03T11:18:42.318Z,10.10
2018-11-03T11:21:10.830Z,10.20
2018-11-03T11:23:39.394Z,10.20
2018-11-03T11:26:08.491Z,10.30
2018-11-03T11:28:37.023Z,10.30
2018-11-03T11:31:05.535Z,10.30
2018-11-03T11:33:34.053Z,10.40
2018-11-03T11:36:02.612Z,10.50
2018-11-03T11:38:32.613Z,10.60
2018-11-03T11:41:01.095Z,10.60
2018-11-03T11:43:29.632Z,10.70
2018-11-03T11:45:58.122Z,10.70
2018-11-03T11:48:27.864Z,10.90
2018-11-03T11:50:56.382Z,11.00
2018-11-03T11:53:24.877Z,11.00
2018-11-03T11:55:53.401Z,11.00
2018-11-03T11:58:21.922Z,11.00
2018-11-03T12:00:50.502Z,11.10
2018-11-03T12:03:20.738Z,11.20
2018-11-03T12:05:49.538Z,11.20
2018-11-03T12:08:18.059Z,11.20
2018-11-03T12:10:49.063Z,11.30
2018-11-03T12:13:17.538Z,11.40
2018-11-03T12:15:47.348Z,11.40
2018-11-03T12:18:16.316Z,11.50
2018-11-03T12:20:46.147Z,11.50
2018-11-03T12:23:14.952Z,11.50
2018-11-03T12:25:43.548Z,11.60
2018-11-03T12:28:12.044Z,11.70
2018-11-03T12:30:40.605Z,11.70
2018-11-03T12:33:09.186Z,11.80
2018-11-03T12:35:37.704Z,11.80
2018-11-03T12:38:06.357Z,11.60
2018-11-03T12:40:36.276Z,11.60
2018-11-03T12:43:05.960Z,11.60
2018-11-03T12:45:35.078Z,11.60
2018-11-03T12:48:03.904Z,11.70
2018-11-03T12:50:32.498Z,11.80
2018-11-03T12:53:00.901Z,11.80
2018-11-03T12:55:30.419Z,11.80
2018-11-03T12:57:58.906Z,11.90
2018-11-03T13:00:27.415Z,11.90
2018-11-03T13:02:55.935Z,12.00
2018-11-03T13:05:24.525Z,12.10
2018-11-03T13:07:53.063Z,12.10
2018-11-03T13:10:21.678Z,12.00
2018-11-03T13:12:50.268Z,12.10
2018-11-03T13:15:18.795Z,12.10
2018-11-03T13:17:47.291Z,12.10
2018-11-03T13:20:15.855Z,12.10
2018-11-03T13:22:45.744Z,12.20
2018-11-03T13:25:14.306Z,12.20
2018-11-03T13:27:43.268Z,12.20
2018-11-03T13:30:15.126Z,12.20
2018-11-03T13:32:43.623Z,12.20
2018-11-03T13:35:13.192Z,12.10
2018-11-03T13:37:41.780Z,12.10
2018-11-03T13:40:11.627Z,11.90
2018-11-03T13:42:40.172Z,11.90
2018-11-03T13:45:11.226Z,11.80
2018-11-03T13:47:40.253Z,11.70
2018-11-03T13:50:13.414Z,11.70
2018-11-03T13:52:43.635Z,11.60
2018-11-03T13:55:12.370Z,11.60
2018-11-03T13:57:42.130Z,11.60
2018-11-03T14:00:13.018Z,11.60
2018-11-03T14:02:42.533Z,11.50
2018-11-03T14:05:11.465Z,11.40
2018-11-03T14:07:39.952Z,11.40
2018-11-03T14:10:10.812Z,11.40
2018-11-03T14:12:39.375Z,11.30
2018-11-03T14:15:09.893Z,11.30
2018-11-03T14:17:38.401Z,11.30
2018-11-03T14:20:08.141Z,11.30
2018-11-03T14:22:36.679Z,11.20
2018-11-03T14:25:06.255Z,11.10
2018-11-03T14:27:34.832Z,11.10
2018-11-03T14:30:03.587Z,11.10
2018-11-03T14:32:32.578Z,11.10
2018-11-03T14:35:01.055Z,11.00
2018-11-03T14:37:29.836Z,11.00
2018-11-03T14:39:58.396Z,11.00
2018-11-03T14:42:28.358Z,11.00
2018-11-03T14:44:57.909Z,10.90
2018-11-03T14:47:27.366Z,10.90
2018-11-03T14:49:55.849Z,10.90
2018-11-03T14:52:24.820Z,10.80
2018-11-03T14:54:53.284Z,10.80
2018-11-03T14:57:23.310Z,10.70
2018-11-03T14:59:51.846Z,10.70
2018-11-03T15:02:20.323Z,10.60
2018-11-03T15:04:48.792Z,10.60
2018-11-03T15:07:18.256Z,10.60
2018-11-03T15:09:46.842Z,10.50
2018-11-03T15:12:15.417Z,10.50
2018-11-03T15:14:43.909Z,10.40
2018-11-03T15:17:12.466Z,10.30
2018-11-03T15:19:41.015Z,10.30
2018-11-03T15:22:10.581Z,10.20
2018-11-03T15:24:39.164Z,10.20
2018-11-03T15:27:07.678Z,10.10
2018-11-03T15:29:36.190Z,10.10
2018-11-03T15:32:04.809Z,10.00
2018-11-03T15:34:34.532Z,10.00
2018-11-03T15:37:03.049Z,9.90
2018-11-03T15:39:31.518Z,9.80
2018-11-03T15:41:59.995Z,9.70
2018-11-03T15:44:28.558Z,9.60
2018-11-03T15:46:58.018Z,9.40
2018-11-03T15:49:26.478Z,9.40
2018-11-03T15:51:56.662Z,9.30
2018-11-03T15:54:25.206Z,9.20
2018-11-03T15:56:54.368Z,9.20
2018-11-03T15:59:22.936Z,9.10
2018-11-03T16:01:51.415Z,9.00
2018-11-03T16:04:19.922Z,8.90
2018-11-03T16:06:48.441Z,8.90
2018-11-03T16:09:16.946Z,8.80
2018-11-03T16:11:45.473Z,8.70
2018-11-03T16:14:14.156Z,8.70
2018-11-03T16:16:42.623Z,8.60
2018-11-03T16:19:11.115Z,8.50
2018-11-03T16:21:39.649Z,8.50
2018-11-03T16:24:08.261Z,8.50
2018-11-03T16:26:36.741Z,8.40
2018-11-03T16:29:05.327Z,8.40
2018-11-03T16:31:34.119Z,8.40
2018-11-03T16:34:02.661Z,8.30
2018-11-03T16:36:31.288Z,8.30
2018-11-03T16:38:59.785Z,8.20
2018-11-03T16:41:28.306Z,8.10
2018-11-03T16:43:56.901Z,8.00
2018-11-03T16:46:25.464Z,8.00
2018-11-03T16:48:53.986Z,7.90
2018-11-03T16:51:22.485Z,7.80
2018-11-03T16:53:51.021Z,7.70
2018-11-03T16:56:19.490Z,7.60
2018-11-03T16:58:48.130Z,7.50
2018-11-03T17:01:16.485Z,7.40
2018-11-03T17:03:45.031Z,7.40
2018-11-03T17:06:13.505Z,7.30
2018-11-03T17:08:41.970Z,7.30
2018-11-03T17:11:10.525Z,7.30
2018-11-03T17:13:39.043Z,7.30
2018-11-03T17:16:07.579Z,7.20
2018-11-03T17:18:36.064Z,7.10
2018-11-03T17:21:04.549Z,7.10
2018-11-03T17:23:33.139Z,7.00
2018-11-03T17:26:01.655Z,7.00
2018-11-03T17:28:30.233Z,7.00
2018-11-03T17:30:58.725Z,6.90
2018-11-03T17:33:27.216Z,6.90
2018-11-03T17:35:55.724Z,6.90
2018-11-03T17:38:24.224Z,6.80
2018-11-03T17:40:52.710Z,6.80
2018-11-03T17:43:21.202Z,6.70
2018-11-03T17:45:49.672Z,6.60
2018-11-03T17:48:18.182Z,6.50
2018-11-03T17:50:46.679Z,6.50
2018-11-03T17:53:15.186Z,6.40
2018-11-03T17:55:43.670Z,6.30
2018-11-03T17:58:12.177Z,6.20
2018-11-03T18:00:40.775Z,6.10
2018-11-03T18:03:09.294Z,6.10
2018-11-03T18:05:37.836Z,6.10
2018-11-03T18:08:06.414Z,6.10
2018-11-03T18:10:34.905Z,6.10
2018-11-03T18:13:03.550Z,6.10
2018-11-03T18:15:32.016Z,6.20
2018-11-03T18:18:00.531Z,6.20
2018-11-03T18:20:29.111Z,6.30
2018-11-03T18:22:57.659Z,6.30
2018-11-03T18:25:26.156Z,6.30
2018-11-03T18:27:54.777Z,6.40
2018-11-03T18:30:23.320Z,6.40
2018-11-03T18:32:51.864Z,6.40
2018-11-03T18:35:20.526Z,6.50
2018-11-03T18:37:49.026Z,6.50
2018-11-03T18:40:17.573Z,6.50
2018-11-03T18:42:46.081Z,6.50
2018-11-03T18:45:15.558Z,6.50
2018-11-03T18:47:44.070Z,6.50
2018-11-03T18:50:14.094Z,6.40
2018-11-03T18:52:42.805Z,6.40
2018-11-03T18:55:12.158Z,6.40
2018-11-03T18:57:41.530Z,6.30
2018-11-03T19:00:10.826Z,6.30
2018-11-03T19:02:39.991Z,6.30
2018-11-03T19:05:08.919Z,6.20
2018-11-03T19:07:37.451Z,6.20
2018-11-03T19:10:07.290Z,6.10
2018-11-03T19:12:35.831Z,6.10
2018-11-03T19:15:04.481Z,6.10
2018-11-03T19:17:33.017Z,6.10
2018-11-03T19:20:01.539Z,6.00
2018-11-03T19:22:30.058Z,6.00
2018-11-03T19:24:58.579Z,6.00
2018-11-03T19:27:27.121Z,6.00
2018-11-03T19:29:55.748Z,6.00
2018-11-03T19:32:24.209Z,5.90
2018-11-03T19:34:52.776Z,5.90
2018-11-03T19:37:21.280Z,5.90
2018-11-03T19:39:49.829Z,5.90
2018-11-03T19:42:18.483Z,5.90
2018-11-03T19:44:47.010Z,6.00
2018-11-03T19:47:15.546Z,5.90
2018-11-03T19:49:44.139Z,5.90
2018-11-03T19:52:12.654Z,5.90
2018-11-03T19:54:41.299Z,5.90
2018-11-03T19:57:09.843Z,5.80
2018-11-03T19:59:38.344Z,5.90
2018-11-03T20:02:06.930Z,5.80
2018-11-03T20:04:35.501Z,5.80
2018-11-03T20:07:04.071Z,5.80
2018-11-03T20:09:32.599Z,5.80
2018-11-03T20:12:01.131Z,5.70
2018-11-03T20:14:29.657Z,5.70
2018-11-03T20:16:58.194Z,5.70
2018-11-03T20:19:26.745Z,5.70
2018-11-03T20:21:55.268Z,5.70
2018-11-03T20:24:23.829Z,5.60
2018-11-03T20:26:52.363Z,5.60
2018-11-03T20:29:20.934Z,5.60
2018-11-03T20:31:49.494Z,5.60
2018-11-03T20:34:18.016Z,5.50
2018-11-03T20:36:46.529Z,5.50
2018-11-03T20:39:15.037Z,5.50
2018-11-03T20:41:43.583Z,5.50
2018-11-03T20:44:12.146Z,5.40
2018-11-03T20:46:40.685Z,5.40
2018-11-03T20:49:09.208Z,5.40
2018-11-03T20:51:37.730Z,5.30
2018-11-03T20:54:06.398Z,5.30
2018-11-03T20:56:34.980Z,5.30
2018-11-03T20:59:03.562Z,5.30
2018-11-03T21:01:32.135Z,5.30
2018-11-03T21:04:00.660Z,5.20
2018-11-03T21:06:29.187Z,5.20
2018-11-03T21:08:57.764Z,5.20
2018-11-03T21:11:26.304Z,5.20
2018-11-03T21:13:54.827Z,5.10
2018-11-03T21:16:23.374Z,5.10
2018-11-03T21:18:52.037Z,5.10
2018-11-03T21:21:21.344Z,5.10
2018-11-03T21:23:49.920Z,5.00
2018-11-03T21:26:18.554Z,5.00
2018-11-03T21:28:47.053Z,5.00
2018-11-03T21:31:15.641Z,5.00
2018-11-03T21:33:44.216Z,4.90
2018-11-03T21:36:12.716Z,4.90
2018-11-03T21:38:54.546Z,4.90
2018-11-03T21:41:23.010Z,4.90
2018-11-03T21:43:51.707Z,4.80
2018-11-03T21:46:20.331Z,4.80
2018-11-03T21:48:48.844Z,4.70
2018-11-03T21:51:17.361Z,4.70
2018-11-03T21:53:45.866Z,4.70
2018-11-03T21:56:14.360Z,4.70
2018-11-03T21:58:42.855Z,4.70
2018-11-03T22:01:11.337Z,4.60
2018-11-03T22:03:39.859Z,4.60
2018-11-03T22:06:08.519Z,4.60
2018-11-03T22:08:37.049Z,4.60
2018-11-03T22:11:05.595Z,4.50
2018-11-03T22:13:34.169Z,4.50
2018-11-03T22:16:02.737Z,4.50
2018-11-03T22:18:31.201Z,4.50
2018-11-03T22:20:59.781Z,4.50
2018-11-03T22:23:28.345Z,4.40
2018-11-03T22:25:56.859Z,4.40
2018-11-03T22:28:25.369Z,4.40
2018-11-03T22:30:53.885Z,4.40
2018-11-03T22:33:22.407Z,4.40
2018-11-03T22:35:50.930Z,4.40
2018-11-03T22:38:19.443Z,4.30
2018-11-03T22:40:47.954Z,4.30
2018-11-03T22:43:16.461Z,4.20
2018-11-03T22:45:44.975Z,4.20
2018-11-03T22:48:13.494Z,4.20
2018-11-03T22:50:42.049Z,4.20
2018-11-03T22:53:10.542Z,4.10
2018-11-03T22:55:40.082Z,4.10
2018-11-03T22:58:08.607Z,4.10
2018-11-03T23:00:41.392Z,4.10
2018-11-03T23:03:09.910Z,4.00
2018-11-03T23:05:38.416Z,4.00
2018-11-03T23:08:07.047Z,4.00
2018-11-03T23:10:35.537Z,4.00
2018-11-03T23:13:04.356Z,4.00
2018-11-03T23:15:32.847Z,3.90
2018-11-03T23:18:01.387Z,3.90
2018-11-03T23:20:29.908Z,4.00
2018-11-03T23:22:58.456Z,3.90
2018-11-03T23:25:27.017Z,3.90
2018-11-03T23:27:55.508Z,3.90
2018-11-03T23:30:24.033Z,3.90
2018-11-03T23:32:52.539Z,3.90
2018-11-03T23:35:21.113Z,3.90
2018-11-03T23:37:49.656Z,3.90
2018-11-03T23:40:18.189Z,3.90
2018-11-03T23:42:46.753Z,3.90
2018-11-03T23:45:15.292Z,3.90
2018-11-03T23:47:43.783Z,3.90
2018-11-03T23:50:13.448Z,3.90
2018-11-03T23:52:45.060Z,3.80
2018-11-03T23:55:13.655Z,3.90
2018-11-03T23:57:42.209Z,3.90
